Time;durP1;ratioP1;P1;durP2;ratioP2;P2;SDS_P1;SDS_P2;PMS_P1;PMS_P2;Temp;Humidity;BMP_temperature;BMP_pressure;BME280_temperature;BME280_humidity;BME280_pressure;Samples;Min_cycle;Max_cycle;Signal;HPM_P1;HPM_P2
2023/09/12 00:01:40;;;;;;;10.50;6.20;;;20.80;99.90;;;;;;5031733;28;20033;-56
2023/09/12 00:04:06;;;;;;;11.00;6.10;;;20.80;99.90;;;;;;5034523;28;20037;-57
2023/09/12 00:06:32;;;;;;;11.68;6.13;;;20.70;99.90;;;;;;5034509;28;20034;-54
2023/09/12 00:08:57;;;;;;;12.82;7.05;;;20.70;99.90;;;;;;5033991;28;20493;-52
2023/09/12 00:11:25;;;;;;;11.75;6.78;;;20.70;99.90;;;;;;5034416;28;20029;-52
2023/09/12 00:13:51;;;;;;;12.80;6.45;;;20.70;99.90;;;;;;5034536;28;20394;-56
2023/09/12 00:16:17;;;;;;;10.68;6.20;;;20.70;99.90;;;;;;5034243;28;20432;-53
2023/09/12 00:18:43;;;;;;;12.02;7.20;;;20.70;99.90;;;;;;5033682;28;20037;-55
2023/09/12 00:21:08;;;;;;;13.13;7.07;;;20.70;99.90;;;;;;5034246;28;20043;-56
2023/09/12 00:23:34;;;;;;;15.27;8.63;;;20.70;99.90;;;;;;5033986;28;20041;-53
2023/09/12 00:26:00;;;;;;;14.38;8.65;;;20.70;99.90;;;;;;5034523;28;20037;-56
2023/09/12 00:28:26;;;;;;;16.48;8.45;;;20.80;99.90;;;;;;5033654;28;20056;-56
2023/09/12 00:30:52;;;;;;;16.65;9.23;;;20.80;99.90;;;;;;5016238;28;20129;-53
2023/09/12 00:33:18;;;;;;;20.05;10.05;;;20.80;99.90;;;;;;5034083;28;20363;-54
2023/09/12 00:35:44;;;;;;;16.25;9.38;;;20.80;99.90;;;;;;5016393;28;20052;-55
2023/09/12 00:38:10;;;;;;;18.23;9.20;;;20.80;99.90;;;;;;5034154;28;20037;-57
2023/09/12 00:40:37;;;;;;;19.20;9.85;;;20.70;99.90;;;;;;5033611;28;20032;-55
2023/09/12 00:43:03;;;;;;;16.45;9.95;;;20.50;99.90;;;;;;5015923;28;20055;-55
2023/09/12 00:45:29;;;;;;;17.58;9.82;;;20.30;99.90;;;;;;5015971;28;20032;-55
2023/09/12 00:47:57;;;;;;;24.67;10.80;;;20.10;99.90;;;;;;5033400;28;20022;-56
2023/09/12 00:50:24;;;;;;;20.20;11.43;;;20.00;99.90;;;;;;5033666;28;20025;-52
2023/09/12 00:52:50;;;;;;;19.13;9.50;;;19.80;99.90;;;;;;5016020;28;20501;-52
2023/09/12 00:55:16;;;;;;;22.10;11.27;;;19.70;99.90;;;;;;5015728;28;20029;-55
2023/09/12 00:57:43;;;;;;;20.15;10.00;;;19.70;99.90;;;;;;5015646;28;20026;-53
2023/09/12 01:00:12;;;;;;;21.83;10.20;;;19.60;99.90;;;;;;5015722;28;20042;-55
2023/09/12 01:02:40;;;;;;;19.42;9.82;;;19.60;99.90;;;;;;5015756;28;20037;-55
2023/09/12 01:05:07;;;;;;;20.75;10.07;;;19.50;99.90;;;;;;5015697;28;20072;-55
2023/09/12 01:07:34;;;;;;;19.60;10.07;;;19.50;99.90;;;;;;5015447;28;20029;-56
2023/09/12 01:10:00;;;;;;;20.70;9.65;;;19.50;99.90;;;;;;5015143;28;20030;-57
2023/09/12 01:12:25;;;;;;;21.80;9.73;;;19.50;99.90;;;;;;5015270;28;20120;-54
2023/09/12 01:14:51;;;;;;;24.45;11.02;;;19.40;99.90;;;;;;5015401;28;20041;-55
2023/09/12 01:17:17;;;;;;;19.40;9.82;;;19.40;99.90;;;;;;5015441;28;20092;-54
2023/09/12 01:19:42;;;;;;;19.63;9.23;;;19.40;99.90;;;;;;5032859;28;20490;-52
2023/09/12 01:22:37;;;;;;;18.83;10.20;;;19.40;99.90;;;;;;5015183;28;20095;-53
2023/09/12 01:25:11;;;;;;;20.63;10.88;;;19.40;99.90;;;;;;5015174;28;20128;-57
2023/09/12 01:27:42;;;;;;;22.77;10.05;;;19.40;99.90;;;;;;5014798;28;20080;-57
2023/09/12 01:30:09;;;;;;;19.52;9.90;;;19.40;99.90;;;;;;5014979;28;20474;-52
2023/09/12 01:32:37;;;;;;;19.60;10.38;;;19.40;99.90;;;;;;5015130;28;20494;-54
2023/09/12 01:35:03;;;;;;;18.88;10.18;;;19.40;99.90;;;;;;5014983;28;20032;-53
2023/09/12 01:37:32;;;;;;;19.25;10.05;;;19.40;99.90;;;;;;5015070;28;20033;-52
2023/09/12 01:39:58;;;;;;;20.20;10.55;;;19.40;99.90;;;;;;4998368;28;20029;-55
2023/09/12 01:42:27;;;;;;;18.38;10.25;;;19.40;99.90;;;;;;5015234;28;20477;-54
2023/09/12 01:44:57;;;;;;;26.02;10.75;;;19.30;99.90;;;;;;5014866;28;20029;-53
2023/09/12 01:47:24;;;;;;;17.65;9.95;;;19.40;99.90;;;;;;5014711;28;20041;-56
2023/09/12 01:49:55;;;;;;;18.58;10.60;;;19.40;99.90;;;;;;5014674;28;20036;-52
2023/09/12 01:52:21;;;;;;;20.95;10.43;;;19.30;99.90;;;;;;5032907;28;20047;-51
2023/09/12 01:54:49;;;;;;;20.70;10.68;;;19.30;99.90;;;;;;5014794;28;20121;-57
2023/09/12 01:57:15;;;;;;;18.27;10.02;;;19.30;99.90;;;;;;5032543;28;20055;-53
2023/09/12 01:59:42;;;;;;;20.98;11.07;;;19.30;99.90;;;;;;5014032;28;20040;-57
2023/09/12 02:02:07;;;;;;;21.52;11.20;;;19.30;99.90;;;;;;5014541;28;20052;-55
2023/09/12 02:04:33;;;;;;;25.67;11.10;;;19.30;99.90;;;;;;5014598;28;20508;-52
2023/09/12 02:06:59;;;;;;;18.92;10.00;;;19.30;99.90;;;;;;5032443;28;20037;-53
2023/09/12 02:09:25;;;;;;;23.58;11.57;;;19.40;99.90;;;;;;5031719;28;20033;-55
2023/09/12 02:11:51;;;;;;;21.90;11.85;;;19.40;99.90;;;;;;5014563;28;20041;-53
2023/09/12 02:14:19;;;;;;;21.08;11.43;;;19.40;99.90;;;;;;5014311;28;20026;-57
2023/09/12 02:16:45;;;;;;;22.17;11.30;;;19.40;99.90;;;;;;5014794;28;20026;-53
2023/09/12 02:19:11;;;;;;;23.25;11.38;;;19.40;99.90;;;;;;5013945;28;20594;-52
2023/09/12 02:21:36;;;;;;;22.48;10.10;;;19.40;99.90;;;;;;5014603;28;20425;-52
2023/09/12 02:24:02;;;;;;;24.20;11.93;;;19.40;99.90;;;;;;5014040;28;20060;-53
2023/09/12 02:26:28;;;;;;;23.52;11.52;;;19.40;99.90;;;;;;5014802;28;20029;-52
2023/09/12 02:28:53;;;;;;;23.30;12.32;;;19.40;99.90;;;;;;5031250;28;20470;-55
2023/09/12 02:31:19;;;;;;;22.85;11.18;;;19.40;99.90;;;;;;5031862;28;20025;-55
2023/09/12 02:33:45;;;;;;;20.25;10.65;;;19.40;99.90;;;;;;5016448;28;20033;-52
2023/09/12 02:36:10;;;;;;;24.40;12.32;;;19.50;99.90;;;;;;5016156;28;20121;-55
2023/09/12 02:38:36;;;;;;;22.88;12.05;;;19.50;99.90;;;;;;5015707;28;20052;-54
2023/09/12 02:41:04;;;;;;;24.17;10.98;;;19.50;99.90;;;;;;5016770;28;20033;-53
2023/09/12 02:43:30;;;;;;;22.77;10.98;;;19.50;99.90;;;;;;5014591;28;20037;-56
2023/09/12 02:45:55;;;;;;;17.77;10.50;;;19.50;99.90;;;;;;5031792;28;20037;-56
2023/09/12 02:48:21;;;;;;;22.27;11.27;;;19.50;99.90;;;;;;5013701;28;20398;-54
2023/09/12 02:50:47;;;;;;;21.95;11.10;;;19.50;99.90;;;;;;5013950;28;20026;-56
2023/09/12 02:53:12;;;;;;;21.55;10.38;;;19.40;99.90;;;;;;5013996;28;20025;-54
2023/09/12 02:55:42;;;;;;;21.75;10.93;;;19.40;99.90;;;;;;5013818;28;20036;-56
2023/09/12 02:58:08;;;;;;;20.45;11.95;;;19.40;99.90;;;;;;5013425;28;20037;-55
2023/09/12 03:00:39;;;;;;;19.42;10.38;;;19.50;99.90;;;;;;5013774;28;20032;-57
2023/09/12 03:03:04;;;;;;;20.17;11.00;;;19.40;99.90;;;;;;5014316;28;20053;-53
2023/09/12 03:05:30;;;;;;;22.55;11.68;;;19.50;99.90;;;;;;5014072;28;20111;-56
2023/09/12 03:07:56;;;;;;;19.98;11.65;;;19.50;99.90;;;;;;5013775;28;20042;-55
2023/09/12 03:10:21;;;;;;;21.33;10.77;;;19.40;99.90;;;;;;5013800;28;20032;-56
2023/09/12 03:12:47;;;;;;;23.67;11.18;;;19.40;99.90;;;;;;5014082;28;20496;-57
2023/09/12 03:15:13;;;;;;;25.50;11.63;;;19.40;99.90;;;;;;5014017;28;20037;-57
2023/09/12 03:17:38;;;;;;;21.85;11.55;;;19.40;99.90;;;;;;5013707;28;20036;-57
2023/09/12 03:20:08;;;;;;;24.65;11.57;;;19.40;99.90;;;;;;5013749;28;20038;-57
2023/09/12 03:22:37;;;;;;;25.33;12.38;;;19.40;99.90;;;;;;5013629;28;20029;-56
2023/09/12 03:25:03;;;;;;;;;;;19.40;99.90;;;;;;5014192;28;20029;-57
2023/09/12 03:27:29;;;;;;;24.20;11.90;;;19.40;99.90;;;;;;5013067;28;20007;-57
2023/09/12 03:29:55;;;;;;;27.42;12.93;;;19.40;99.90;;;;;;5012660;28;20108;-56
2023/09/12 03:32:21;;;;;;;26.45;12.43;;;19.40;99.90;;;;;;5012781;28;20087;-55
2023/09/12 03:34:46;;;;;;;26.92;13.60;;;19.30;99.90;;;;;;5012259;28;20494;-57
2023/09/12 03:37:12;;;;;;;30.92;13.68;;;19.30;99.90;;;;;;5012580;28;20068;-56
2023/09/12 03:39:38;;;;;;;26.48;13.10;;;19.30;99.90;;;;;;5012383;28;20040;-57
2023/09/12 03:42:04;;;;;;;30.85;14.40;;;19.30;99.90;;;;;;5030634;28;20115;-54
2023/09/12 03:44:30;;;;;;;27.30;14.43;;;19.30;99.90;;;;;;5012654;28;20022;-57
2023/09/12 03:46:56;;;;;;;33.17;16.85;;;19.30;99.90;;;;;;5012831;28;20029;-55
2023/09/12 03:49:22;;;;;;;32.80;16.30;;;19.20;99.90;;;;;;5012611;28;20040;-56
2023/09/12 03:51:48;;;;;;;29.35;14.98;;;19.20;99.90;;;;;;5013088;28;20025;-55
2023/09/12 03:54:13;;;;;;;33.70;15.90;;;19.20;99.90;;;;;;5030720;28;20021;-55
2023/09/12 03:56:39;;;;;;;32.20;15.65;;;19.20;99.90;;;;;;5013143;28;20026;-56
2023/09/12 03:59:05;;;;;;;31.20;15.73;;;19.20;99.90;;;;;;5012678;28;20500;-56
2023/09/12 04:01:31;;;;;;;34.13;16.90;;;19.20;99.90;;;;;;5013225;28;20022;-53
2023/09/12 04:03:57;;;;;;;36.60;15.68;;;19.20;99.90;;;;;;5012329;28;20079;-56
2023/09/12 04:06:23;;;;;;;34.22;16.23;;;19.20;99.90;;;;;;5030580;28;20083;-57
2023/09/12 04:08:49;;;;;;;33.05;15.93;;;19.20;99.90;;;;;;5011910;28;20124;-57
2023/09/12 04:11:14;;;;;;;32.03;15.75;;;19.20;99.90;;;;;;5012729;28;20029;-55
2023/09/12 04:13:40;;;;;;;34.67;15.95;;;19.20;99.90;;;;;;5013157;28;20118;-56
2023/09/12 04:16:05;;;;;;;28.55;15.30;;;19.20;99.90;;;;;;5013161;28;20026;-56
2023/09/12 04:18:31;;;;;;;39.00;15.98;;;19.20;99.90;;;;;;5012676;28;20112;-55
2023/09/12 04:20:57;;;;;;;35.35;16.30;;;19.10;99.90;;;;;;5012391;28;20060;-57
2023/09/12 04:23:25;;;;;;;34.38;15.80;;;19.20;99.90;;;;;;5012390;28;20083;-55
2023/09/12 04:25:51;;;;;;;30.90;14.75;;;19.10;99.90;;;;;;5030473;28;20044;-54
2023/09/12 04:28:17;;;;;;;31.25;15.02;;;19.20;99.90;;;;;;5012120;28;20025;-52
2023/09/12 04:30:42;;;;;;;31.95;15.95;;;19.20;99.90;;;;;;5010846;28;20021;-56
2023/09/12 04:33:08;;;;;;;32.50;15.35;;;19.10;99.90;;;;;;5011577;28;20032;-55
2023/09/12 04:35:35;;;;;;;35.05;15.95;;;19.10;99.90;;;;;;5010990;28;20564;-53
2023/09/12 04:38:01;;;;;;;35.70;17.08;;;19.10;99.90;;;;;;5013136;28;20079;-56
2023/09/12 04:40:27;;;;;;;28.63;16.00;;;19.10;99.90;;;;;;5027291;28;20036;-56
2023/09/12 04:42:53;;;;;;;30.13;15.27;;;19.10;99.90;;;;;;5027258;28;20547;-54
2023/09/12 04:45:19;;;;;;;34.03;14.85;;;19.10;99.90;;;;;;5028516;28;20033;-54
2023/09/12 04:47:45;;;;;;;30.83;13.98;;;19.10;99.90;;;;;;5029578;28;20022;-56
2023/09/12 04:50:11;;;;;;;30.95;15.43;;;19.10;99.90;;;;;;5032200;28;20037;-52
2023/09/12 04:52:38;;;;;;;33.63;15.90;;;19.10;99.90;;;;;;5032341;28;20036;-55
2023/09/12 04:55:04;;;;;;;32.80;15.27;;;19.10;99.90;;;;;;5032463;28;20026;-53
2023/09/12 04:57:30;;;;;;;30.88;14.60;;;19.10;99.90;;;;;;5032117;28;20038;-56
2023/09/12 04:59:58;;;;;;;28.90;15.25;;;19.10;99.90;;;;;;5015207;28;20406;-54
2023/09/12 05:02:25;;;;;;;26.92;14.07;;;19.10;99.90;;;;;;5032391;28;20039;-57
2023/09/12 05:04:51;;;;;;;31.30;15.70;;;19.20;99.90;;;;;;5032331;28;20056;-58
2023/09/12 05:07:17;;;;;;;29.58;15.18;;;19.20;99.90;;;;;;5033445;28;20064;-55
2023/09/12 05:09:43;;;;;;;29.08;13.93;;;19.10;99.90;;;;;;5031492;28;20115;-56
2023/09/12 05:12:09;;;;;;;26.77;13.32;;;19.20;99.90;;;;;;5032054;28;20021;-54
2023/09/12 05:14:36;;;;;;;29.67;14.27;;;19.20;99.90;;;;;;5031748;28;20032;-53
2023/09/12 05:17:03;;;;;;;31.23;15.07;;;19.10;99.90;;;;;;5031909;28;20033;-57
2023/09/12 05:19:30;;;;;;;28.88;14.13;;;19.10;99.90;;;;;;5031329;28;20112;-55
2023/09/12 05:21:55;;;;;;;30.38;14.63;;;19.10;99.90;;;;;;5030795;28;20038;-54
2023/09/12 05:24:21;;;;;;;28.52;13.73;;;19.10;99.90;;;;;;5017087;28;20033;-56
2023/09/12 05:26:49;;;;;;;27.02;12.93;;;19.20;99.90;;;;;;5015847;28;20030;-55
2023/09/12 05:29:15;;;;;;;31.40;14.10;;;19.20;99.90;;;;;;5015479;28;20033;-55
2023/09/12 05:31:40;;;;;;;31.25;14.00;;;19.20;99.90;;;;;;5016019;28;20029;-55
2023/09/12 05:34:06;;;;;;;27.38;14.00;;;19.20;99.90;;;;;;5015665;28;20022;-56
2023/09/12 05:36:32;;;;;;;27.25;13.18;;;19.20;99.90;;;;;;5015559;28;20116;-55
2023/09/12 05:38:58;;;;;;;25.23;13.30;;;19.20;99.90;;;;;;5014864;28;20494;-53
2023/09/12 05:41:23;;;;;;;25.88;13.07;;;19.30;99.90;;;;;;5015134;28;20026;-54
2023/09/12 05:43:49;;;;;;;24.58;13.25;;;19.20;99.90;;;;;;5014907;28;20026;-56
2023/09/12 05:46:15;;;;;;;28.98;13.50;;;19.30;99.90;;;;;;5032972;28;20481;-56
2023/09/12 05:48:40;;;;;;;23.10;13.45;;;19.30;99.90;;;;;;5014673;28;20440;-56
2023/09/12 05:51:06;;;;;;;32.97;15.70;;;19.30;99.90;;;;;;5014955;28;20029;-52
2023/09/12 05:53:32;;;;;;;31.92;15.25;;;19.40;99.90;;;;;;5015099;28;20034;-57
2023/09/12 05:55:57;;;;;;;40.13;17.92;;;19.50;99.90;;;;;;5014809;28;20029;-55
2023/09/12 05:58:23;;;;;;;41.83;17.38;;;19.50;99.90;;;;;;5014129;28;20026;-56
2023/09/12 06:00:49;;;;;;;33.92;17.20;;;19.50;99.90;;;;;;5013963;28;20124;-52
2023/09/12 06:03:15;;;;;;;38.50;18.05;;;19.60;99.90;;;;;;5014793;28;20030;-55
2023/09/12 06:05:41;;;;;;;31.73;17.20;;;19.70;99.90;;;;;;5015026;28;20473;-57
2023/09/12 06:08:07;;;;;;;35.35;17.17;;;19.90;99.90;;;;;;5032147;28;20024;-55
2023/09/12 06:10:33;;;;;;;34.30;15.80;;;20.10;99.90;;;;;;5032069;28;20021;-55
2023/09/12 06:12:59;;;;;;;28.83;14.52;;;20.20;99.90;;;;;;5032416;28;20035;-52
2023/09/12 06:15:25;;;;;;;33.40;14.45;;;20.10;99.90;;;;;;5032263;28;20022;-56
2023/09/12 06:17:50;;;;;;;28.65;13.57;;;20.00;99.90;;;;;;5032531;28;20040;-57
2023/09/12 06:20:16;;;;;;;9.55;2.85;;;19.80;99.90;;;;;;5032372;28;20095;-59
2023/09/12 06:22:43;;;;;;;5.57;1.80;;;19.10;99.90;;;;;;5032229;28;20037;-58
2023/09/12 06:25:08;;;;;;;3.00;1.02;;;18.40;99.90;;;;;;5032173;28;20067;-53
2023/09/12 06:27:34;;;;;;;3.60;1.63;;;17.80;99.90;;;;;;5031917;28;20057;-52
2023/09/12 06:30:00;;;;;;;7.75;1.40;;;17.40;99.90;;;;;;5031718;28;20057;-55
2023/09/12 06:32:26;;;;;;;7.13;1.92;;;17.10;99.90;;;;;;5031926;28;20029;-54
2023/09/12 06:34:51;;;;;;;5.82;1.92;;;17.00;99.90;;;;;;5032149;28;20025;-54
2023/09/12 06:37:17;;;;;;;6.70;1.83;;;16.90;99.90;;;;;;5032060;28;20410;-54
2023/09/12 06:39:43;;;;;;;7.85;2.20;;;16.90;99.90;;;;;;5031498;28;20026;-53
2023/09/12 06:42:09;;;;;;;4.68;2.08;;;16.90;99.90;;;;;;5031891;28;20033;-54
2023/09/12 06:44:35;;;;;;;5.13;2.28;;;16.90;99.90;;;;;;5031632;28;20061;-52
2023/09/12 06:47:00;;;;;;;7.45;2.75;;;16.90;99.90;;;;;;5031582;28;20064;-55
2023/09/12 06:49:26;;;;;;;7.90;2.72;;;16.90;99.90;;;;;;5031000;28;20030;-55
2023/09/12 06:51:52;;;;;;;7.25;2.30;;;17.00;99.90;;;;;;5031997;28;20033;-54
2023/09/12 06:54:17;;;;;;;5.85;2.40;;;17.10;99.90;;;;;;5031722;28;20033;-52
2023/09/12 06:56:43;;;;;;;7.03;2.67;;;17.00;99.90;;;;;;5031739;28;20021;-52
2023/09/12 06:59:09;;;;;;;6.22;2.33;;;17.00;99.90;;;;;;5030864;28;20533;-54
2023/09/12 07:01:35;;;;;;;10.45;3.20;;;17.00;99.90;;;;;;5032020;28;20740;-51
2023/09/12 07:04:01;;;;;;;7.30;2.35;;;17.00;99.90;;;;;;5031909;28;20359;-50
2023/09/12 07:06:26;;;;;;;6.03;2.55;;;17.00;99.90;;;;;;5031849;28;20034;-54
2023/09/12 07:08:52;;;;;;;4.93;2.10;;;17.10;99.90;;;;;;5031660;28;20029;-54
2023/09/12 07:11:19;;;;;;;6.70;2.70;;;17.10;99.90;;;;;;5031157;28;20017;-55
2023/09/12 07:13:45;;;;;;;7.28;2.70;;;17.10;99.90;;;;;;5032999;28;20436;-55
2023/09/12 07:16:10;;;;;;;6.43;2.45;;;17.10;99.90;;;;;;5033855;28;20045;-56
2023/09/12 07:18:36;;;;;;;6.68;3.20;;;17.10;99.90;;;;;;5034225;28;20040;-55
2023/09/12 07:21:04;;;;;;;5.47;2.83;;;17.10;99.90;;;;;;5033073;28;20039;-55
2023/09/12 07:23:30;;;;;;;6.10;2.53;;;17.10;99.90;;;;;;5030939;28;20044;-55
2023/09/12 07:25:57;;;;;;;6.70;2.55;;;17.10;99.90;;;;;;5030763;28;20037;-53
2023/09/12 07:28:23;;;;;;;6.45;2.88;;;17.10;99.90;;;;;;5030393;28;20029;-54
2023/09/12 07:30:49;;;;;;;6.65;2.85;;;17.10;99.90;;;;;;5012817;28;20116;-55
2023/09/12 07:33:15;;;;;;;7.32;2.88;;;17.20;99.90;;;;;;5030882;28;20100;-55
2023/09/12 07:35:41;;;;;;;7.18;3.47;;;17.20;99.90;;;;;;5030807;28;20421;-53
2023/09/12 07:38:06;;;;;;;8.18;3.00;;;17.20;99.90;;;;;;5030696;28;20473;-56
2023/09/12 07:40:32;;;;;;;6.22;3.15;;;17.30;99.90;;;;;;5030575;28;20159;-53
2023/09/12 07:42:58;;;;;;;6.28;2.75;;;17.40;99.90;;;;;;5030722;28;20489;-55
2023/09/12 07:45:23;;;;;;;6.15;2.90;;;17.40;99.90;;;;;;5030728;28;20075;-54
2023/09/12 07:47:49;;;;;;;7.35;3.35;;;17.50;99.90;;;;;;5029680;28;20117;-52
2023/09/12 07:50:14;;;;;;;8.50;3.40;;;17.50;99.90;;;;;;5029610;28;20029;-55
2023/09/12 07:52:40;;;;;;;8.75;3.75;;;17.60;99.90;;;;;;5030498;28;20025;-56
2023/09/12 07:55:07;;;;;;;8.40;3.28;;;17.70;99.90;;;;;;5029194;28;20026;-51
2023/09/12 07:57:34;;;;;;;11.20;4.18;;;17.80;99.90;;;;;;5029306;28;20087;-52
2023/09/12 08:00:00;;;;;;;12.18;4.10;;;17.90;99.90;;;;;;5029722;28;20470;-51
2023/09/12 08:02:26;;;;;;;8.05;3.30;;;18.00;99.90;;;;;;5030361;28;20038;-56
2023/09/12 08:04:53;;;;;;;8.10;2.95;;;18.00;99.90;;;;;;5012367;28;20499;-55
2023/09/12 08:07:19;;;;;;;7.82;3.03;;;18.10;99.90;;;;;;5030098;28;20109;-53
2023/09/12 08:09:56;;;;;;;7.00;3.63;;;18.20;99.90;;;;;;5029735;28;20108;-51
2023/09/12 08:12:23;;;;;;;5.07;3.00;;;18.30;99.90;;;;;;5030107;28;20053;-51
2023/09/12 08:14:49;;;;;;;8.55;3.85;;;18.40;99.90;;;;;;5029921;28;20040;-55
2023/09/12 08:17:15;;;;;;;8.45;4.13;;;18.50;99.90;;;;;;5030096;28;20033;-54
2023/09/12 08:19:41;;;;;;;8.88;3.75;;;18.60;99.90;;;;;;5029605;28;20057;-54
2023/09/12 08:22:08;;;;;;;7.57;3.63;;;18.80;99.90;;;;;;4993718;28;1050803;-55
2023/09/12 08:24:35;;;;;;;8.52;4.47;;;18.90;99.90;;;;;;5034762;28;20494;-54
2023/09/12 08:27:01;;;;;;;7.97;4.40;;;18.90;99.90;;;;;;5034568;28;20429;-55
2023/09/12 08:29:33;;;;;;;9.40;4.72;;;19.10;99.90;;;;;;5034227;28;20052;-51
2023/09/12 08:31:59;;;;;;;12.88;6.10;;;19.20;99.90;;;;;;5034796;28;20044;-56
2023/09/12 08:34:26;;;;;;;11.75;5.78;;;19.20;99.90;;;;;;5034448;28;20510;-55
2023/09/12 08:36:51;;;;;;;12.73;6.50;;;19.30;99.90;;;;;;5034561;28;20425;-55
2023/09/12 08:39:24;;;;;;;13.25;6.18;;;19.40;99.90;;;;;;5034150;28;20097;-56
2023/09/12 08:41:51;;;;;;;11.02;6.07;;;19.60;99.90;;;;;;5034183;28;20060;-54
2023/09/12 08:44:17;;;;;;;10.30;5.28;;;19.80;99.90;;;;;;5016560;28;20421;-55
2023/09/12 08:46:44;;;;;;;8.93;4.63;;;20.00;99.90;;;;;;5034274;28;20053;-55
2023/09/12 08:49:11;;;;;;;14.77;5.57;;;20.10;99.90;;;;;;5033703;28;20033;-55
2023/09/12 08:51:39;;;;;;;10.73;5.93;;;20.10;99.90;;;;;;5034392;28;20060;-55
2023/09/12 08:54:11;;;;;;;10.00;5.40;;;20.20;99.90;;;;;;5034008;28;20022;-52
2023/09/12 08:56:41;;;;;;;14.07;7.93;;;20.30;99.90;;;;;;5034412;28;20033;-52
2023/09/12 08:59:07;;;;;;;13.38;7.28;;;20.50;99.90;;;;;;5033702;28;20087;-54
2023/09/12 09:01:33;;;;;;;12.57;7.78;;;20.40;99.90;;;;;;5034437;28;20424;-55
2023/09/12 09:04:02;;;;;;;15.77;8.85;;;20.30;99.90;;;;;;5034225;28;20477;-54
2023/09/12 09:06:31;;;;;;;22.55;12.38;;;20.30;99.90;;;;;;5033776;28;20037;-54
2023/09/12 09:08:58;;;;;;;23.75;12.60;;;20.30;99.90;;;;;;5033419;28;20438;-56
2023/09/12 09:11:27;;;;;;;22.05;13.35;;;20.30;99.90;;;;;;5034030;28;20477;-52
2023/09/12 09:13:54;;;;;;;23.55;12.90;;;20.30;99.90;;;;;;5033904;28;20055;-54
2023/09/12 09:16:21;;;;;;;27.83;15.65;;;20.40;99.90;;;;;;5033852;28;20488;-54
2023/09/12 09:19:00;;;;;;;32.53;15.77;;;20.50;99.90;;;;;;5033176;28;20037;-55
2023/09/12 09:21:31;;;;;;;25.40;13.82;;;20.70;99.90;;;;;;5033542;28;20033;-54
2023/09/12 09:24:00;;;;;;;22.05;13.77;;;20.70;99.90;;;;;;5033506;28;20633;-56
2023/09/12 09:26:39;;;;;;;25.70;14.80;;;20.80;99.90;;;;;;5030731;28;20026;-56
2023/09/12 09:29:08;;;;;;;20.65;12.57;;;20.90;99.90;;;;;;5033216;28;20049;-56
2023/09/12 09:31:34;;;;;;;23.48;12.75;;;21.00;99.90;;;;;;5033685;28;20025;-56
2023/09/12 09:34:01;;;;;;;21.08;10.85;;;21.20;99.90;;;;;;5033141;28;20036;-56
2023/09/12 09:36:27;;;;;;;19.42;9.68;;;21.20;99.90;;;;;;5033142;28;20057;-56
2023/09/12 09:38:54;;;;;;;17.25;9.35;;;21.20;99.90;;;;;;5032962;28;20037;-56
2023/09/12 09:41:21;;;;;;;16.98;8.80;;;21.40;99.90;;;;;;5025282;28;20025;-55
2023/09/12 09:43:50;;;;;;;11.32;7.30;;;21.40;99.90;;;;;;5029899;28;20030;-56
2023/09/12 09:46:19;;;;;;;13.23;7.93;;;21.50;99.90;;;;;;5030457;28;20033;-54
2023/09/12 09:48:51;;;;;;;;;;;21.70;99.90;;;;;;5030512;28;20444;-56
2023/09/12 09:51:17;;;;;;;15.10;7.88;;;21.80;99.90;;;;;;5030273;28;19956;-54
2023/09/12 09:53:43;;;;;;;17.38;9.50;;;22.10;99.90;;;;;;5030361;28;20029;-53
2023/09/12 09:56:12;;;;;;;20.92;10.65;;;22.20;99.90;;;;;;5030314;28;20369;-55
2023/09/12 09:58:49;;;;;;;19.00;10.15;;;22.30;99.90;;;;;;5029874;28;20053;-53
2023/09/12 10:01:23;;;;;;;17.23;10.38;;;22.30;99.90;;;;;;5029182;28;20099;-55
2023/09/12 10:03:50;;;;;;;23.02;12.38;;;22.40;99.90;;;;;;5030518;28;20042;-54
2023/09/12 10:06:18;;;;;;;26.88;15.63;;;22.50;99.90;;;;;;5030009;28;20026;-53
2023/09/12 10:08:46;;;;;;;28.83;16.27;;;22.50;99.90;;;;;;5010035;28;20036;-56
2023/09/12 10:11:16;;;;;;;29.02;15.45;;;22.40;99.90;;;;;;5027747;28;20431;-52
2023/09/12 10:14:05;;;;;;;26.83;14.27;;;22.20;99.90;;;;;;5029617;28;20450;-54
2023/09/12 10:16:35;;;;;;;28.15;14.48;;;22.00;99.90;;;;;;5028388;28;20116;-54
2023/09/12 10:19:23;;;;;;;26.85;14.20;;;21.80;99.90;;;;;;5027726;28;20037;-52
2023/09/12 10:22:17;;;;;;;27.45;15.30;;;21.70;99.90;;;;;;5028286;28;20120;-55
2023/09/12 10:24:45;;;;;;;23.98;12.60;;;21.60;99.90;;;;;;5029044;28;20030;-55
2023/09/12 10:27:12;;;;;;;22.20;11.57;;;21.60;99.90;;;;;;5009384;28;20052;-54
2023/09/12 10:29:38;;;;;;;21.75;11.35;;;21.90;99.90;;;;;;5028635;28;20108;-55
2023/09/12 10:32:04;;;;;;;23.65;11.88;;;22.20;99.90;;;;;;5009156;28;20104;-53
2023/09/12 10:34:32;;;;;;;16.83;9.23;;;22.60;99.90;;;;;;5028723;28;20025;-55
2023/09/12 10:36:59;;;;;;;15.83;7.97;;;23.00;99.90;;;;;;5028736;28;20152;-55
2023/09/12 10:39:27;;;;;;;13.63;6.97;;;23.50;99.90;;;;;;5028455;28;20460;-56
2023/09/12 10:41:54;;;;;;;11.18;5.80;;;23.90;99.90;;;;;;5028434;28;20071;-53
2023/09/12 10:44:21;;;;;;;10.75;5.95;;;24.10;99.90;;;;;;5028733;28;20179;-54
2023/09/12 10:46:48;;;;;;;8.25;5.00;;;24.30;99.90;;;;;;5027582;28;20040;-55
2023/09/12 10:49:15;;;;;;;11.30;6.40;;;24.50;99.90;;;;;;5027837;28;20026;-55
2023/09/12 10:51:45;;;;;;;10.10;5.18;;;24.60;99.90;;;;;;5027286;28;20404;-56
2023/09/12 10:54:22;;;;;;;8.85;4.03;;;24.70;99.90;;;;;;5025713;28;20098;-56
2023/09/12 10:57:05;;;;;;;7.40;4.22;;;24.60;99.90;;;;;;5027989;28;20071;-54
2023/09/12 10:59:36;;;;;;;7.00;4.40;;;24.40;99.90;;;;;;5027946;28;20083;-55
2023/09/12 11:02:30;;;;;;;8.40;4.72;;;24.40;99.90;;;;;;5028300;28;20333;-53
2023/09/12 11:04:57;;;;;;;6.13;4.00;;;24.30;99.90;;;;;;5026484;28;20386;-53
2023/09/12 11:07:33;;;;;;;6.90;3.95;;;24.30;99.90;;;;;;5028011;28;20496;-54
2023/09/12 11:10:18;;;;;;;4.85;3.10;;;24.30;99.90;;;;;;5026619;28;20100;-53
2023/09/12 11:12:51;;;;;;;5.85;3.70;;;24.30;99.90;;;;;;5029326;28;20025;-50
2023/09/12 11:15:18;;;;;;;5.50;3.63;;;24.30;99.90;;;;;;5028314;28;20121;-52
2023/09/12 11:17:49;;;;;;;7.47;3.92;;;24.30;99.90;;;;;;5028445;28;20030;-53
2023/09/12 11:20:16;;;;;;;6.68;4.22;;;24.20;99.90;;;;;;5028115;28;20032;-53
2023/09/12 11:22:44;;;;;;;7.00;3.85;;;24.40;99.90;;;;;;5029011;28;20037;-50
2023/09/12 11:25:25;;;;;;;8.10;4.10;;;24.40;99.90;;;;;;5028745;28;20040;-54
2023/09/12 11:27:50;;;;;;;7.57;4.40;;;24.50;99.90;;;;;;5027843;28;20080;-54
2023/09/12 11:30:20;;;;;;;6.38;3.85;;;24.40;99.90;;;;;;5012814;28;20182;-55
2023/09/12 11:32:48;;;;;;;7.88;3.67;;;24.40;99.90;;;;;;5029603;28;20448;-54
2023/09/12 11:35:14;;;;;;;7.25;3.75;;;24.40;99.90;;;;;;5028456;28;20037;-56
2023/09/12 11:37:49;;;;;;;7.88;4.25;;;24.20;99.90;;;;;;4993904;28;20515;-56
2023/09/12 11:40:14;;;;;;;7.75;3.55;;;24.30;99.90;;;;;;5026927;28;20025;-55
2023/09/12 11:42:41;;;;;;;6.20;3.67;;;24.40;99.90;;;;;;5028569;28;20040;-55
2023/09/12 11:45:10;;;;;;;5.30;3.38;;;24.40;99.90;;;;;;5028056;28;20044;-56
2023/09/12 11:47:43;;;;;;;6.70;3.75;;;24.50;99.90;;;;;;5027784;28;20033;-54
2023/09/12 11:50:27;;;;;;;6.72;3.35;;;24.50;99.90;;;;;;5027330;28;20036;-54
2023/09/12 11:53:25;;;;;;;6.40;3.33;;;24.60;99.90;;;;;;5027566;28;20500;-56
2023/09/12 11:55:57;;;;;;;6.68;3.90;;;24.70;99.90;;;;;;5001884;28;20133;-56
2023/09/12 11:58:24;;;;;;;5.95;3.92;;;24.60;99.90;;;;;;5019636;28;20030;-56
2023/09/12 12:00:51;;;;;;;6.32;4.05;;;24.80;99.90;;;;;;5027430;28;20049;-52
2023/09/12 12:03:19;;;;;;;8.05;4.57;;;24.80;99.90;;;;;;5027554;28;20112;-56
2023/09/12 12:05:45;;;;;;;6.82;4.40;;;24.90;99.90;;;;;;5009842;28;20162;-57
2023/09/12 12:08:12;;;;;;;7.80;4.90;;;25.00;99.90;;;;;;5027023;28;20056;-55
2023/09/12 12:10:41;;;;;;;8.10;5.10;;;25.00;99.90;;;;;;5027783;28;20186;-54
2023/09/12 12:13:16;;;;;;;7.85;4.47;;;24.90;99.90;;;;;;5027853;28;20111;-52
2023/09/12 12:15:42;;;;;;;5.80;4.18;;;24.70;99.90;;;;;;5027616;28;20113;-55
2023/09/12 12:18:07;;;;;;;6.13;3.85;;;24.70;99.90;;;;;;5009711;28;20121;-55
2023/09/12 12:20:33;;;;;;;5.55;3.63;;;24.80;99.90;;;;;;5028105;28;20136;-51
2023/09/12 12:22:59;;;;;;;7.18;3.92;;;24.80;99.90;;;;;;5028049;28;20033;-55
2023/09/12 12:25:25;;;;;;;5.97;3.75;;;24.80;99.90;;;;;;5028432;28;20049;-52
2023/09/12 12:27:50;;;;;;;4.72;3.45;;;24.80;99.90;;;;;;5026809;28;20040;-54
2023/09/12 12:30:17;;;;;;;5.05;3.70;;;24.90;99.90;;;;;;5009722;28;20063;-53
2023/09/12 12:32:49;;;;;;;6.28;3.58;;;24.90;99.90;;;;;;5027705;28;20022;-53
2023/09/12 12:35:22;;;;;;;5.68;3.50;;;24.80;99.90;;;;;;5027350;28;20089;-54
2023/09/12 12:37:49;;;;;;;5.80;3.95;;;24.70;99.90;;;;;;5027625;28;20034;-55